Time;durP1;ratioP1;P1;durP2;ratioP2;P2;SDS_P1;SDS_P2;PMS_P1;PMS_P2;Temp;Humidity;BMP_temperature;BMP_pressure;BME280_temperature;BME280_humidity;BME280_pressure;Samples;Min_cycle;Max_cycle;Signal;HPM_P1;HPM_P2
2023/10/20 00:00:14;;;;;;;23.30;16.58;;;;;;;12.02;100.00;98533.97;4949946;29;20555;-85
2023/10/20 00:06:14;;;;;;;22.83;16.50;;;;;;;12.04;100.00;98528.28;4954077;29;20042;-83
2023/10/20 00:08:39;;;;;;;24.80;17.33;;;;;;;12.02;100.00;98516.97;4947833;29;20541;-85
2023/10/20 00:11:45;;;;;;;22.45;16.52;;;;;;;12.00;100.00;98514.53;4954891;28;20034;-85
2023/10/20 00:15:01;;;;;;;22.55;16.65;;;;;;;11.97;100.00;98510.47;4958496;28;20035;-84
2023/10/20 00:17:44;;;;;;;22.35;16.15;;;;;;;11.91;100.00;98506.13;4952638;29;20038;-85
2023/10/20 00:20:29;;;;;;;24.25;16.50;;;;;;;11.91;100.00;98499.94;4955605;28;20468;-84
2023/10/20 00:22:55;;;;;;;24.05;17.65;;;;;;;11.87;100.00;98490.75;4950583;29;20031;-84
2023/10/20 00:28:42;;;;;;;23.90;16.67;;;;;;;11.88;100.00;98490.47;4954975;29;20070;-85
2023/10/20 00:31:52;;;;;;;22.70;17.48;;;;;;;11.85;100.00;98496.38;4941844;29;20023;-84
2023/10/20 00:35:13;;;;;;;23.67;16.80;;;;;;;11.79;100.00;98489.34;4946966;29;20551;-84
2023/10/20 00:37:44;;;;;;;22.48;16.60;;;;;;;11.73;100.00;98483.16;4932537;29;20058;-83
2023/10/20 00:43:54;;;;;;;26.73;17.90;;;;;;;11.74;100.00;98487.44;4948431;29;20186;-84
2023/10/20 00:53:00;;;;;;;24.42;17.63;;;;;;;11.67;100.00;98447.25;4939199;29;20047;-84
2023/10/20 00:59:24;;;;;;;27.02;17.50;;;;;;;11.69;100.00;98447.00;4942290;29;20053;-83
2023/10/20 01:01:49;;;;;;;24.25;17.88;;;;;;;11.63;100.00;98446.19;4954745;29;20086;-80
2023/10/20 01:04:30;;;;;;;26.92;18.35;;;;;;;11.65;100.00;98446.69;4952447;29;20039;-80
2023/10/20 01:06:58;;;;;;;24.17;17.73;;;;;;;11.62;100.00;98431.09;4953877;29;20035;-80
2023/10/20 01:09:26;;;;;;;26.02;18.25;;;;;;;11.64;100.00;98434.31;4955035;29;20023;-80
2023/10/20 01:11:52;;;;;;;26.15;17.63;;;;;;;11.62;100.00;98425.69;4956740;29;20047;-80
2023/10/20 01:14:18;;;;;;;25.65;17.70;;;;;;;11.58;100.00;98419.22;4953974;29;20051;-79
2023/10/20 01:16:43;;;;;;;27.23;18.42;;;;;;;11.57;100.00;98401.41;4959967;29;20035;-81
2023/10/20 01:19:11;;;;;;;27.95;18.15;;;;;;;11.59;100.00;98388.50;4977828;28;20113;-80
2023/10/20 01:21:36;;;;;;;25.48;17.85;;;;;;;11.57;100.00;98396.03;4991627;28;20023;-79
2023/10/20 01:24:04;;;;;;;28.35;18.25;;;;;;;11.57;100.00;98389.81;4965392;28;20479;-78
2023/10/20 01:26:30;;;;;;;27.10;17.98;;;;;;;11.55;100.00;98392.78;4950062;29;20031;-79
2023/10/20 01:28:55;;;;;;;26.23;17.45;;;;;;;11.56;100.00;98394.41;4952920;29;20495;-79
2023/10/20 01:31:22;;;;;;;26.48;17.23;;;;;;;11.60;100.00;98400.06;4953813;29;20041;-79
2023/10/20 01:33:48;;;;;;;27.23;17.98;;;;;;;11.60;100.00;98403.59;4951843;29;20050;-79
2023/10/20 01:36:13;;;;;;;24.02;17.65;;;;;;;11.60;100.00;98406.28;4951511;29;20035;-79
2023/10/20 01:38:38;;;;;;;25.90;17.67;;;;;;;11.63;100.00;98394.97;4947708;28;20031;-79
2023/10/20 01:41:06;;;;;;;27.05;17.83;;;;;;;11.64;100.00;98396.59;4950520;29;20112;-79
2023/10/20 01:43:31;;;;;;;27.35;18.05;;;;;;;11.67;100.00;98400.63;4952181;29;20134;-79
2023/10/20 01:45:57;;;;;;;24.10;17.63;;;;;;;11.67;100.00;98396.03;4953015;29;20093;-80
2023/10/20 01:48:22;;;;;;;25.52;17.20;;;;;;;11.68;100.00;98391.47;4943775;29;20523;-79
2023/10/20 01:50:48;;;;;;;23.75;17.35;;;;;;;11.70;100.00;98394.72;4952822;29;20031;-79
2023/10/20 01:53:14;;;;;;;25.23;17.00;;;;;;;11.70;100.00;98373.16;4952749;29;20472;-79
2023/10/20 01:55:49;;;;;;;25.45;18.05;;;;;;;11.72;100.00;98371.03;4949759;29;20035;-79
2023/10/20 01:58:18;;;;;;;26.73;17.40;;;;;;;11.73;100.00;98351.06;4949202;29;20372;-79
2023/10/20 02:00:48;;;;;;;25.83;17.67;;;;;;;11.71;100.00;98338.94;4950358;29;20106;-79
2023/10/20 02:03:13;;;;;;;25.23;17.90;;;;;;;11.70;100.00;98323.81;4951711;29;20031;-79
2023/10/20 02:05:41;;;;;;;26.67;17.95;;;;;;;11.67;100.00;98331.38;4952278;29;20365;-79
2023/10/20 02:08:08;;;;;;;24.05;16.83;;;;;;;11.66;100.00;98334.34;4949345;29;20110;-79
2023/10/20 02:10:36;;;;;;;27.17;17.80;;;;;;;11.67;100.00;98333.28;4951468;29;20102;-79
2023/10/20 02:13:02;;;;;;;27.05;18.25;;;;;;;11.64;100.00;98342.72;4949671;29;20114;-79
2023/10/20 02:15:30;;;;;;;26.80;18.20;;;;;;;11.63;100.00;98341.09;4952468;29;20070;-80
2023/10/20 02:17:56;;;;;;;27.05;17.92;;;;;;;11.62;100.00;98341.34;4949929;29;20106;-79
2023/10/20 02:20:23;;;;;;;28.83;18.65;;;;;;;11.58;100.00;98338.38;4951091;29;20114;-86
2023/10/20 02:22:50;;;;;;;27.20;18.13;;;;;;;11.61;100.00;98331.63;4957742;28;20035;-85
2023/10/20 02:25:23;;;;;;;26.90;17.88;;;;;;;11.55;100.00;98322.72;4961195;29;20052;-88
2023/10/20 02:27:52;;;;;;;28.10;17.73;;;;;;;11.54;100.00;98304.94;4959673;29;20114;-88
2023/10/20 02:30:18;;;;;;;29.30;18.95;;;;;;;11.52;100.00;98307.09;4955976;29;20083;-87
2023/10/20 02:32:44;;;;;;;28.48;18.05;;;;;;;11.49;100.00;98313.81;4952229;29;20032;-88
2023/10/20 02:35:09;;;;;;;28.95;18.08;;;;;;;11.49;100.00;98302.22;4951451;29;20025;-86
2023/10/20 02:37:35;;;;;;;28.88;18.27;;;;;;;11.41;100.00;98289.28;4951939;29;20031;-87
2023/10/20 02:40:04;;;;;;;30.95;19.08;;;;;;;11.38;100.00;98286.06;4951459;29;20180;-85
2023/10/20 02:42:31;;;;;;;31.30;19.13;;;;;;;11.37;100.00;98281.72;4931340;29;20122;-84
2023/10/20 02:44:56;;;;;;;29.10;18.05;;;;;;;11.33;100.00;98277.94;4941561;29;20468;-84
2023/10/20 02:47:22;;;;;;;31.27;18.17;;;;;;;11.34;100.00;98268.00;4955719;29;20035;-84
2023/10/20 02:49:48;;;;;;;30.10;18.48;;;;;;;11.28;100.00;98258.28;4956171;29;20043;-84
2023/10/20 02:52:14;;;;;;;30.98;18.88;;;;;;;11.24;100.00;98268.78;4939888;29;20051;-84
2023/10/20 02:54:40;;;;;;;29.42;18.10;;;;;;;11.24;100.00;98274.16;4956156;29;20061;-84
2023/10/20 02:57:11;;;;;;;29.02;18.27;;;;;;;11.23;100.00;98251.00;4956050;29;20043;-84
2023/10/20 02:59:41;;;;;;;31.63;18.65;;;;;;;11.18;100.00;98248.28;4955653;29;20490;-84
2023/10/20 03:02:06;;;;;;;31.35;18.88;;;;;;;11.15;100.00;98238.03;4955979;29;20126;-84
2023/10/20 03:04:36;;;;;;;31.33;18.42;;;;;;;11.16;100.00;98245.03;4953595;29;20031;-84
2023/10/20 03:07:01;;;;;;;32.90;19.35;;;;;;;11.12;100.00;98244.78;4956474;29;20045;-84
2023/10/20 03:09:26;;;;;;;30.90;18.42;;;;;;;11.10;100.00;98229.97;4956338;29;20541;-83
2023/10/20 03:11:52;;;;;;;31.50;19.30;;;;;;;11.11;100.00;98227.00;4953656;29;20032;-84
2023/10/20 03:14:17;;;;;;;29.23;17.90;;;;;;;11.11;100.00;98220.81;4955342;29;20019;-84
2023/10/20 03:16:43;;;;;;;31.85;19.17;;;;;;;11.07;100.00;98225.91;4955767;29;20023;-84
2023/10/20 03:19:11;;;;;;;33.28;19.80;;;;;;;11.01;100.00;98217.00;4954316;29;20035;-84
2023/10/20 03:21:37;;;;;;;31.63;19.05;;;;;;;11.01;100.00;98217.00;4954175;29;20090;-84
2023/10/20 03:24:04;;;;;;;35.95;19.55;;;;;;;11.03;100.00;98208.69;4955844;29;20027;-85
2023/10/20 03:26:30;;;;;;;29.70;18.58;;;;;;;10.99;100.00;98186.84;4954554;29;20027;-84
2023/10/20 03:28:56;;;;;;;31.35;19.08;;;;;;;10.93;100.00;98193.31;4952625;23;20058;-84
2023/10/20 03:31:22;;;;;;;34.88;19.33;;;;;;;10.92;100.00;98192.50;4936818;29;20035;-85
2023/10/20 03:33:48;;;;;;;32.17;18.42;;;;;;;10.94;100.00;98181.47;4955997;23;20052;-84
2023/10/20 03:36:13;;;;;;;32.20;18.55;;;;;;;10.88;100.00;98180.63;4955431;29;20059;-84
2023/10/20 03:38:39;;;;;;;31.67;17.77;;;;;;;10.84;100.00;98184.13;4955481;29;20130;-85
2023/10/20 03:41:09;;;;;;;32.88;18.25;;;;;;;10.83;100.00;98177.94;4955156;29;20385;-84
2023/10/20 03:43:35;;;;;;;30.00;18.75;;;;;;;10.80;100.00;98162.31;4954428;29;20400;-85
2023/10/20 03:46:00;;;;;;;32.55;18.88;;;;;;;10.80;100.00;98161.50;4957316;29;20034;-84
2023/10/20 03:48:29;;;;;;;33.53;18.92;;;;;;;10.82;100.00;98170.13;4954204;29;20472;-84
2023/10/20 03:50:55;;;;;;;32.47;18.48;;;;;;;10.80;100.00;98177.66;4957366;29;20059;-84
2023/10/20 03:53:26;;;;;;;33.10;19.13;;;;;;;10.77;100.00;98179.00;4956651;29;20046;-84
2023/10/20 03:56:02;;;;;;;31.60;18.63;;;;;;;10.79;100.00;98165.25;4954775;28;20511;-84
2023/10/20 03:58:30;;;;;;;32.07;19.53;;;;;;;10.79;100.00;98167.97;4954701;29;20035;-84
2023/10/20 04:01:07;;;;;;;32.55;19.20;;;;;;;10.74;100.00;98152.63;4957593;29;20119;-84
2023/10/20 04:03:33;;;;;;;30.80;18.90;;;;;;;10.72;100.00;98149.38;4957344;29;20456;-84
2023/10/20 04:05:58;;;;;;;32.78;18.85;;;;;;;10.69;100.00;98149.91;4956303;29;20027;-84
2023/10/20 04:08:24;;;;;;;31.08;17.85;;;;;;;10.68;100.00;98141.03;4953186;29;20391;-84
2023/10/20 04:10:56;;;;;;;33.28;18.23;;;;;;;10.71;100.00;98142.38;4954934;29;20496;-84
2023/10/20 04:13:23;;;;;;;34.60;19.77;;;;;;;10.67;100.00;98139.41;4954482;29;20042;-84
2023/10/20 04:15:49;;;;;;;35.55;19.45;;;;;;;10.61;100.00;98132.38;4955048;29;20368;-84
2023/10/20 04:18:15;;;;;;;32.60;19.38;;;;;;;10.63;100.00;98143.69;4958363;29;20091;-84
2023/10/20 04:20:41;;;;;;;31.67;18.25;;;;;;;10.59;100.00;98145.31;4955348;29;20038;-84
2023/10/20 04:23:07;;;;;;;34.08;18.67;;;;;;;10.56;100.00;98141.25;4955604;29;20019;-84
2023/10/20 04:25:52;;;;;;;34.08;18.73;;;;;;;10.57;100.00;98117.88;4962367;29;20149;-84
2023/10/20 04:28:20;;;;;;;35.80;18.95;;;;;;;10.57;100.00;98152.84;4936951;29;20043;-84
2023/10/20 04:42:00;;;;;;;34.78;19.00;;;;;;;10.42;100.00;98118.63;4972990;28;20538;-85
2023/10/20 05:07:52;;;;;;;29.50;17.23;;;;;;;10.13;100.00;98025.72;4981889;28;20038;-84
2023/10/20 05:10:19;;;;;;;33.70;18.38;;;;;;;10.11;100.00;98021.69;4975646;28;20045;-88
2023/10/20 05:15:50;;;;;;;36.20;18.67;;;;;;;9.98;100.00;98023.78;5142348;23;20074;-87
2023/10/20 05:18:53;;;;;;;39.10;19.10;;;;;;;9.99;100.00;98024.59;4981926;28;20027;-87
2023/10/20 05:21:33;;;;;;;38.45;19.17;;;;;;;9.99;100.00;98019.22;4970176;28;20022;-85
2023/10/20 05:24:08;;;;;;;32.92;18.83;;;;;;;9.94;100.00;98005.75;4970316;28;20046;-85
2023/10/20 05:26:56;;;;;;;33.13;18.20;;;;;;;9.88;100.00;97996.09;4974013;28;20077;-88
2023/10/20 05:32:48;;;;;;;34.70;17.80;;;;;;;9.78;100.00;98000.34;4910984;29;20075;-87
2023/10/20 05:35:34;;;;;;;33.70;17.45;;;;;;;9.75;100.00;97992.78;4912111;29;20032;-86
2023/10/20 05:37:59;;;;;;;34.58;16.77;;;;;;;9.76;100.00;97985.56;4894832;29;20058;-86
2023/10/20 05:40:24;;;;;;;34.63;16.73;;;;;;;9.75;100.00;97982.03;4904156;29;20050;-86
2023/10/20 05:42:50;;;;;;;31.42;17.35;;;;;;;9.70;100.00;97958.66;4901494;29;20033;-86
2023/10/20 05:45:20;;;;;;;33.50;17.83;;;;;;;9.66;100.00;97967.53;4897498;29;20056;-87
2023/10/20 05:47:50;;;;;;;34.78;18.10;;;;;;;9.65;100.00;97973.97;4914208;29;20052;-87
2023/10/20 05:50:15;;;;;;;30.98;17.42;;;;;;;9.64;100.00;97964.28;4896870;29;20075;-86
2023/10/20 05:55:15;;;;;;;34.20;16.33;;;;;;;9.59;100.00;97962.38;5138441;23;20060;-86
2023/10/20 06:01:34;;;;;;;31.33;16.40;;;;;;;9.53;100.00;97977.66;4912820;29;20134;-87
2023/10/20 06:07:49;;;;;;;28.20;14.43;;;;;;;9.48;100.00;97995.63;4955509;28;20097;-87
2023/10/20 06:10:46;;;;;;;;;;;;;;;;;;;;;
2023/10/20 06:13:13;;;;;;;24.85;13.63;;;;;;;9.49;100.00;97989.19;4958727;28;20047;-78
2023/10/20 06:15:39;;;;;;;27.55;14.35;;;;;;;9.41;100.00;97987.78;4950271;29;20062;-80
2023/10/20 06:18:32;;;;;;;42.70;14.18;;;;;;;9.42;100.00;97988.63;4950459;28;20043;-81
2023/10/20 06:20:58;;;;;;;22.10;13.30;;;;;;;9.39;100.00;97974.66;4968520;28;20065;-81
2023/10/20 06:23:32;;;;;;;24.55;13.93;;;;;;;9.38;100.00;97977.56;4962606;28;20028;-77
2023/10/20 06:25:58;;;;;;;23.02;13.35;;;;;;;9.40;100.00;97986.19;4955558;28;20063;-82
2023/10/20 06:31:42;;;;;;;22.23;12.80;;;;;;;9.37;100.00;97949.09;5036058;23;20037;-86
2023/10/20 06:34:22;;;;;;;23.55;13.35;;;;;;;9.34;100.00;97963.88;4944953;29;20050;-86
2023/10/20 06:36:48;;;;;;;19.85;11.48;;;;;;;9.32;100.00;97954.47;4942715;29;20416;-87
2023/10/20 06:39:31;;;;;;;23.38;12.80;;;;;;;9.18;100.00;97951.44;4954712;29;20027;-87
2023/10/20 06:42:34;;;;;;;20.25;11.88;;;;;;;9.22;100.00;97947.97;4936397;28;20027;-87
2023/10/20 06:45:14;;;;;;;18.73;10.77;;;;;;;9.20;100.00;97944.72;4956004;29;20071;-88
2023/10/20 06:47:40;;;;;;;16.42;10.20;;;;;;;9.19;100.00;97959.22;4940791;29;20043;-88
2023/10/20 06:50:10;;;;;;;16.38;10.35;;;;;;;9.17;100.00;97966.75;4941527;29;20024;-89
2023/10/20 06:52:53;;;;;;;15.98;9.63;;;;;;;9.07;100.00;97993.50;4944506;29;20043;-87
2023/10/20 06:55:19;;;;;;;15.68;10.00;;;;;;;9.08;100.00;97984.38;4936664;29;20047;-89
2023/10/20 06:57:44;;;;;;;13.23;8.75;;;;;;;9.04;100.00;97959.94;4955332;28;20141;-89
2023/10/20 07:00:17;;;;;;;12.98;8.73;;;;;;;9.01;100.00;97951.56;4954701;29;20111;-88
2023/10/20 07:02:48;;;;;;;12.13;8.35;;;;;;;8.97;100.00;97945.13;4921482;29;20492;-89
2023/10/20 07:05:14;;;;;;;11.18;8.18;;;;;;;9.00;100.00;97941.94;4936607;29;20031;-89
2023/10/20 07:07:50;;;;;;;12.02;8.35;;;;;;;8.93;100.00;97955.56;4954254;29;20043;-89
2023/10/20 07:10:17;;;;;;;12.50;7.60;;;;;;;8.90;100.00;97956.88;4949115;29;20027;-88
2023/10/20 07:12:43;;;;;;;12.23;7.43;;;;;;;8.97;100.00;97948.63;4933906;29;20031;-89
2023/10/20 07:15:37;;;;;;;9.48;7.35;;;;;;;8.98;100.00;97968.22;4949580;28;20027;-86
2023/10/20 07:18:33;;;;;;;10.73;7.18;;;;;;;8.95;100.00;97950.75;4936263;29;20110;-90
2023/10/20 07:20:58;;;;;;;8.20;6.43;;;;;;;8.89;100.00;97922.28;4938950;29;20130;-88
2023/10/20 07:23:52;;;;;;;9.55;6.95;;;;;;;8.92;100.00;97925.25;4948558;29;20466;-89
2023/10/20 07:29:34;;;;;;;9.35;7.07;;;;;;;8.88;100.00;97926.81;4981778;23;20109;-91
2023/10/20 07:32:54;;;;;;;8.45;6.18;;;;;;;8.84;100.00;97933.75;4980896;28;20035;-89
2023/10/20 07:35:38;;;;;;;8.57;6.70;;;;;;;8.88;100.00;97912.63;4956477;28;20069;-87
2023/10/20 07:38:04;;;;;;;8.02;5.90;;;;;;;8.84;100.00;97917.66;4968544;28;20038;-89
2023/10/20 07:40:34;;;;;;;8.25;6.20;;;;;;;8.88;100.00;97920.66;4970052;28;20034;-90
2023/10/20 07:48:34;;;;;;;6.88;5.78;;;;;;;8.88;100.00;97929.50;5025695;23;20052;-90
2023/10/20 08:01:11;;;;;;;6.95;5.45;;;;;;;8.72;100.00;97930.47;4934133;29;20039;-87
2023/10/20 08:03:37;;;;;;;6.10;5.25;;;;;;;8.67;100.00;97925.88;4934239;29;20059;-87
2023/10/20 08:06:54;;;;;;;8.10;4.93;;;;;;;8.70;100.00;97916.50;4936961;29;20049;-88
2023/10/20 08:12:39;;;;;;;5.60;4.55;;;;;;;8.61;100.00;97922.34;4900242;29;20042;-89
2023/10/20 08:15:05;;;;;;;5.57;4.78;;;;;;;8.57;100.00;97931.97;4932576;29;20035;-88
2023/10/20 08:17:30;;;;;;;5.80;4.38;;;;;;;8.62;100.00;97917.78;4931437;29;20115;-88
2023/10/20 08:20:32;;;;;;;5.60;4.10;;;;;;;8.63;100.00;97930.97;4933370;29;20126;-89
2023/10/20 08:22:58;;;;;;;5.82;3.97;;;;;;;8.59;100.00;97923.66;4932372;29;20031;-88
2023/10/20 08:29:49;;;;;;;4.32;3.92;;;;;;;8.60;100.00;97904.66;4903489;29;20054;-88
2023/10/20 08:32:15;;;;;;;3.80;3.40;;;;;;;8.55;100.00;97885.84;4916866;29;20092;-89
2023/10/20 08:34:41;;;;;;;5.25;3.33;;;;;;;8.50;100.00;97899.19;4925448;29;20055;-89
2023/10/20 08:37:17;;;;;;;4.47;3.35;;;;;;;8.55;100.00;97901.13;4934899;29;20739;-90
2023/10/20 08:40:10;;;;;;;3.17;2.88;;;;;;;8.53;100.00;97890.63;4932705;29;20091;-89
2023/10/20 08:42:37;;;;;;;4.75;3.35;;;;;;;8.50;100.00;97893.84;4911585;29;20123;-87
2023/10/20 08:45:03;;;;;;;3.40;3.10;;;;;;;8.49;100.00;97903.75;4930841;29;20147;-87
2023/10/20 08:47:47;;;;;;;3.58;3.28;;;;;;;8.47;100.00;97897.03;4913842;29;20428;-88
2023/10/20 08:50:13;;;;;;;4.00;3.60;;;;;;;8.44;100.00;97887.59;4915625;29;20051;-87
2023/10/20 08:52:39;;;;;;;3.70;2.97;;;;;;;8.44;100.00;97910.94;4932548;29;20074;-87
2023/10/20 08:55:14;;;;;;;3.20;2.90;;;;;;;8.40;100.00;97909.81;4916270;29;20131;-90
2023/10/20 08:57:39;;;;;;;3.17;2.88;;;;;;;8.38;100.00;97931.53;4932198;29;20062;-87
2023/10/20 09:00:07;;;;;;;3.17;2.88;;;;;;;8.37;100.00;97902.28;4935054;29;20469;-87
2023/10/20 09:02:37;;;;;;;3.20;2.90;;;;;;;8.38;100.00;97890.50;4935467;29;20472;-88
2023/10/20 09:05:33;;;;;;;2.95;2.70;;;;;;;8.35;100.00;97903.34;4934890;29;20031;-88
2023/10/20 09:08:00;;;;;;;3.45;3.15;;;;;;;8.32;100.00;97890.44;4934470;29;20119;-89
2023/10/20 09:11:01;;;;;;;3.65;2.90;;;;;;;8.31;100.00;97910.28;4918481;29;20028;-88
2023/10/20 09:13:40;;;;;;;3.30;3.00;;;;;;;8.27;100.00;97898.47;4937152;29;20031;-89
2023/10/20 09:16:40;;;;;;;15.45;3.53;;;;;;;8.28;100.00;97905.44;4936545;29;20050;-89
2023/10/20 09:19:06;;;;;;;4.00;2.92;;;;;;;8.23;100.00;97905.38;4935908;29;20071;-89
2023/10/20 09:21:47;;;;;;;3.05;2.85;;;;;;;8.23;100.00;97900.03;4938484;29;20036;-89
2023/10/20 09:27:14;;;;;;;3.45;3.15;;;;;;;8.09;100.00;97896.16;4885578;29;20039;-90
2023/10/20 09:30:08;;;;;;;3.95;3.38;;;;;;;8.13;100.00;97900.75;4883573;29;20094;-89
2023/10/20 09:35:59;;;;;;;4.30;3.25;;;;;;;8.09;100.00;97904.97;4938805;23;20065;-89
2023/10/20 09:39:08;;;;;;;3.42;3.13;;;;;;;8.17;100.00;97917.13;4938804;28;20034;-88
2023/10/20 09:41:57;;;;;;;3.17;2.90;;;;;;;8.18;100.00;97908.00;4971198;28;20266;-88
2023/10/20 09:44:49;;;;;;;3.55;2.83;;;;;;;8.16;100.00;97894.88;4961127;28;20018;-89
2023/10/20 09:47:36;;;;;;;3.45;3.15;;;;;;;8.20;100.00;97911.25;4956781;28;20069;-90
2023/10/20 09:50:05;;;;;;;3.28;3.00;;;;;;;8.17;100.00;97895.69;4974376;28;20103;-89
2023/10/20 09:53:15;;;;;;;3.38;3.08;;;;;;;8.20;100.00;97903.22;4992302;28;20061;-88
2023/10/20 09:55:42;;;;;;;3.20;3.00;;;;;;;8.14;100.00;97906.91;4950011;28;20042;-88
2023/10/20 09:58:07;;;;;;;3.42;3.13;;;;;;;8.18;100.00;97891.94;4947248;28;20027;-89
2023/10/20 10:00:46;;;;;;;3.45;3.13;;;;;;;8.14;100.00;97894.31;4989243;28;20049;-88
2023/10/20 10:03:42;;;;;;;3.33;3.03;;;;;;;8.21;100.00;97902.16;4963693;28;20466;-84
2023/10/20 10:09:52;;;;;;;3.42;3.13;;;;;;;8.15;100.00;97898.63;4974756;28;20049;-85
2023/10/20 10:12:55;;;;;;;3.53;2.90;;;;;;;8.18;100.00;97903.47;4979845;28;20029;-85
2023/10/20 10:15:22;;;;;;;3.08;2.78;;;;;;;8.17;100.00;97893.00;4971617;28;20043;-86
2023/10/20 10:17:49;;;;;;;2.60;2.40;;;;;;;8.18;100.00;97875.84;4956767;28;20041;-86
2023/10/20 10:20:27;;;;;;;2.70;2.50;;;;;;;8.15;100.00;97893.25;4959198;28;20031;-85
2023/10/20 10:23:04;;;;;;;3.38;2.60;;;;;;;8.11;100.00;97876.06;4954522;29;20102;-86
2023/10/20 10:25:35;;;;;;;3.85;2.70;;;;;;;8.15;100.00;97892.44;4966429;28;20129;-87
2023/10/20 10:28:31;;;;;;;3.20;2.90;;;;;;;8.15;100.00;97885.22;4974259;28;20038;-86
2023/10/20 10:30:56;;;;;;;2.63;2.42;;;;;;;8.21;100.00;97898.69;4955612;29;20373;-86
2023/10/20 10:33:22;;;;;;;3.05;2.70;;;;;;;8.18;100.00;97882.03;4955395;29;20110;-86
2023/10/20 10:35:48;;;;;;;2.40;2.15;;;;;;;8.18;100.00;97886.56;4961376;28;20046;-86
2023/10/20 10:38:40;;;;;;;2.92;2.55;;;;;;;8.18;100.00;97870.50;4976775;28;20031;-87
2023/10/20 10:41:05;;;;;;;2.85;2.65;;;;;;;8.22;100.00;97868.09;4975453;28;20042;-87
2023/10/20 10:43:56;;;;;;;2.55;2.35;;;;;;;8.27;100.00;97866.31;4942879;28;20018;-88
2023/10/20 10:46:38;;;;;;;2.33;2.20;;;;;;;8.24;100.00;97866.81;4974961;28;20050;-87
2023/10/20 10:49:08;;;;;;;2.35;2.15;;;;;;;8.26;100.00;97850.47;4972906;28;20550;-87
2023/10/20 11:03:39;;;;;;;2.60;2.40;;;;;;;8.33;100.00;97849.19;4919506;29;20281;-88
2023/10/20 11:16:07;;;;;;;2.00;1.90;;;;;;;8.40;100.00;97810.63;4954960;23;20086;-87
2023/10/20 11:21:15;;;;;;;2.17;1.90;;;;;;;8.31;100.00;97799.59;5180431;23;20029;-88
2023/10/20 11:23:48;;;;;;;2.65;1.88;;;;;;;8.26;100.00;97795.00;4875891;29;20075;-86
2023/10/20 11:29:35;;;;;;;1.92;1.80;;;;;;;8.33;100.00;97808.97;5043011;23;20150;-88
2023/10/20 11:35:00;;;;;;;1.73;1.63;;;;;;;8.43;100.00;97786.00;5220647;23;20523;-89
2023/10/20 11:37:32;;;;;;;1.70;1.60;;;;;;;8.39;100.00;97785.69;4923183;28;20018;-87
2023/10/20 11:39:57;;;;;;;1.98;1.88;;;;;;;8.42;100.00;97785.19;4962610;28;20031;-89
2023/10/20 11:42:36;;;;;;;1.90;1.58;;;;;;;8.44;100.00;97774.22;4969056;28;20043;-88
2023/10/20 11:48:26;;;;;;;1.73;1.60;;;;;;;8.60;100.00;97764.41;4968436;23;20067;-89
2023/10/20 11:50:52;;;;;;;1.60;1.50;;;;;;;8.62;100.00;97746.19;4951483;29;20357;-87
2023/10/20 11:57:30;;;;;;;1.63;1.52;;;;;;;8.65;100.00;97751.81;4914275;29;20517;-88
2023/10/20 11:59:55;;;;;;;1.70;1.60;;;;;;;8.62;100.00;97736.28;5090596;23;20075;-89
2023/10/20 12:16:08;;;;;;;1.70;1.60;;;;;;;8.57;100.00;97720.16;4937157;23;20046;-86
2023/10/20 12:18:34;;;;;;;1.48;1.38;;;;;;;8.57;100.00;97724.69;4980974;23;20194;-87
2023/10/20 12:21:02;;;;;;;1.60;1.50;;;;;;;8.61;100.00;97717.75;4951665;29;20035;-88
2023/10/20 12:23:43;;;;;;;1.60;1.50;;;;;;;8.63;100.00;97727.16;4952964;29;20520;-88
2023/10/20 12:26:39;;;;;;;1.60;1.50;;;;;;;8.64;100.00;97717.22;4953323;29;20110;-89
2023/10/20 12:29:05;;;;;;;1.60;1.50;;;;;;;8.53;100.00;97705.66;4954131;29;20058;-89
2023/10/20 12:31:39;;;;;;;2.08;1.50;;;;;;;8.48;100.00;97717.16;4954250;29;20026;-88
2023/10/20 12:34:07;;;;;;;1.50;1.40;;;;;;;8.53;100.00;97715.56;4960481;28;20018;-88
2023/10/20 12:36:48;;;;;;;1.60;1.50;;;;;;;8.49;100.00;97724.13;4962033;28;20053;-89
2023/10/20 12:39:42;;;;;;;;;;;;;;;;;;;;;
2023/10/20 12:45:09;;;;;;;1.80;1.70;;;;;;;8.45;100.00;97698.09;4950797;29;20047;-90
2023/10/20 12:53:26;;;;;;;1.77;1.67;;;;;;;8.45;100.00;97682.00;5477708;23;20062;-86
2023/10/20 13:08:37;;;;;;;1.92;1.83;;;;;;;8.51;100.00;97658.72;4944292;29;20453;-88
2023/10/20 13:14:38;;;;;;;2.10;2.00;;;;;;;8.47;100.00;97639.66;4910560;29;20047;-88
2023/10/20 13:17:27;;;;;;;1.77;1.67;;;;;;;8.46;100.00;97641.53;4950908;28;20021;-87
2023/10/20 13:23:49;;;;;;;1.98;1.88;;;;;;;8.48;100.00;97639.41;5230576;23;20062;-88
2023/10/20 13:31:48;;;;;;;2.10;1.90;;;;;;;8.45;100.00;97645.28;5030841;23;20151;-86
2023/10/20 13:34:39;;;;;;;2.13;2.03;;;;;;;8.51;100.00;97648.81;4910675;29;20036;-87
2023/10/20 13:37:51;;;;;;;1.80;1.70;;;;;;;8.55;100.00;97649.91;4905456;29;20035;-88
2023/10/20 13:40:34;;;;;;;1.90;1.70;;;;;;;8.51;100.00;97648.81;4918316;29;20092;-89
2023/10/20 13:43:00;;;;;;;1.70;1.60;;;;;;;8.59;100.00;97658.22;4925520;29;20032;-91
2023/10/20 13:46:13;;;;;;;2.70;1.48;;;;;;;8.56;100.00;97654.19;4925810;29;20032;-88
2023/10/20 13:48:38;;;;;;;2.45;1.83;;;;;;;8.54;100.00;97661.69;4861934;29;20069;-84
2023/10/20 13:51:09;;;;;;;1.90;1.80;;;;;;;8.54;100.00;97642.91;4913147;29;20378;-84
2023/10/20 13:53:50;;;;;;;1.90;1.70;;;;;;;8.55;100.00;97641.84;4914467;29;20028;-85
2023/10/20 13:56:17;;;;;;;1.70;1.60;;;;;;;8.55;100.00;97655.25;4904973;29;20024;-84
2023/10/20 13:58:42;;;;;;;2.10;1.90;;;;;;;8.48;100.00;97625.19;4903995;29;20202;-85
2023/10/20 14:01:07;;;;;;;2.55;2.03;;;;;;;8.49;100.00;97633.00;4909382;29;20032;-85
2023/10/20 14:03:35;;;;;;;1.90;1.80;;;;;;;8.55;100.00;97628.44;4912723;29;20053;-85
2023/10/20 14:06:07;;;;;;;1.98;1.83;;;;;;;8.57;100.00;97625.50;4911230;29;20032;-85
2023/10/20 14:08:35;;;;;;;2.88;1.80;;;;;;;8.56;100.00;97613.97;4912048;29;20047;-85
2023/10/20 14:11:04;;;;;;;2.00;1.90;;;;;;;8.55;100.00;97615.03;4926676;29;20395;-87
2023/10/20 14:13:35;;;;;;;3.05;2.28;;;;;;;8.57;100.00;97614.75;4920085;29;20039;-88
2023/10/20 14:18:47;;;;;;;1.88;1.70;;;;;;;8.50;100.00;97612.34;4885223;29;20051;-89
2023/10/20 14:21:31;;;;;;;2.20;2.00;;;;;;;8.55;100.00;97612.34;4912633;29;20028;-84
2023/10/20 14:24:09;;;;;;;2.00;1.90;;;;;;;8.58;100.00;97619.06;4912755;29;20424;-89
2023/10/20 14:27:04;;;;;;;2.80;2.50;;;;;;;8.59;100.00;97612.63;4914441;29;21349;-86
2023/10/20 14:29:30;;;;;;;2.58;2.38;;;;;;;8.59;100.00;97612.63;4998631;23;20051;-86
2023/10/20 14:34:47;;;;;;;2.53;2.33;;;;;;;8.62;100.00;97622.84;5291920;23;20175;-86
2023/10/20 14:37:12;;;;;;;2.20;2.10;;;;;;;8.65;100.00;97623.09;4936678;29;21381;-87
2023/10/20 14:39:39;;;;;;;3.10;2.80;;;;;;;8.69;100.00;97611.84;4958596;28;20154;-91
2023/10/20 14:42:14;;;;;;;2.40;2.20;;;;;;;8.68;100.00;97616.41;4964738;29;20035;-84
2023/10/20 14:44:40;;;;;;;2.38;2.17;;;;;;;8.69;100.00;97609.16;4952879;29;20046;-85
2023/10/20 14:47:05;;;;;;;2.63;2.42;;;;;;;8.69;100.00;97620.72;4956622;29;20122;-85
2023/10/20 14:49:32;;;;;;;2.50;2.30;;;;;;;8.63;100.00;97625.25;4952832;29;20066;-85
2023/10/20 14:51:57;;;;;;;2.40;2.20;;;;;;;8.70;100.00;97634.91;4951516;29;20387;-85
2023/10/20 14:54:22;;;;;;;2.60;2.25;;;;;;;8.69;100.00;97644.03;4951809;28;20102;-86
2023/10/20 14:56:49;;;;;;;2.60;2.40;;;;;;;8.70;100.00;97648.31;4953460;29;20438;-86
2023/10/20 14:59:14;;;;;;;2.90;2.70;;;;;;;8.71;100.00;97660.66;4952709;29;20027;-85
2023/10/20 15:01:43;;;;;;;2.92;2.70;;;;;;;8.68;100.00;97653.97;4929865;29;20392;-85
2023/10/20 15:04:08;;;;;;;2.90;2.70;;;;;;;8.72;100.00;97654.22;4991091;23;20403;-85
2023/10/20 15:06:33;;;;;;;3.20;2.90;;;;;;;8.75;100.00;97661.75;4933656;29;20023;-86
2023/10/20 15:08:59;;;;;;;3.00;2.80;;;;;;;8.71;100.00;97663.34;4927150;29;20034;-84
2023/10/20 15:11:33;;;;;;;208.27;13.38;;;;;;;8.74;100.00;97657.47;4934323;29;20066;-86
2023/10/20 15:14:34;;;;;;;3.20;3.00;;;;;;;8.75;100.00;97659.88;4931793;29;20044;-83